LIPA Airport Information

Runway Information
Runway 05 Length 8551 ft width 144 ft
Elevation 321 ft Threshold 0 ft Heading 48
Runway 23 Length 8551 ft Width 144 ft
Elevation 410 ft Threshold 0 ft Heading 228
Airport Frequencies
Type ACP Name AMCC Frequency 264.8 MHZ
Type APP Name APP Frequency 275.325 MHZ
Type ATIS Name ATIS Frequency 262.95 MHZ
Type OPS Name SOF Frequency 262.95 MHZ
Type PMSV Name PMSV METRO Frequency 257.75 MHZ
Type POST Name COMD POST Frequency 262.95 MHZ
Type TWR Name TWR Frequency 142.05 MHZ
Airport Navaids
Type TACAN Name Aviano Frequency 116400 KHZ
Type NDB Name Aviano Frequency 390 KHZ
Airport Weather Information & NOTAM
ADDS - METARS form results

(0215 UTC 14 November 2018)
Data provider http://aviationweather.gov/metar/data/
 
Forecast for: LIPA (AVIANO (IT/US-AF, IT)
Text: TAF LIPA 132000Z 1321/1406 VRB03KT 2000 BR SCT015 BKN025
Forecast period: 2100 UTC 13 November 2018 to 0600 UTC 14 November 2018
Forecast type: FROM: standard forecast or significant change
Winds: variable direction winds at 3 MPH (3 knots; 1.5 m/s)
Visibility: 1.24 miles (2.00 km)
Ceiling: 2500 feet AGL
Clouds: scattered clouds at 1500 feet AGL
broken clouds at 2500 feet AGL
Weather: BR  (mist)